createdAt,value
2023-07-24T00:02:21.572Z,100.00
2023-07-24T00:04:51.264Z,99.53
2023-07-24T00:07:20.650Z,99.72
2023-07-24T00:09:50.327Z,100.00
2023-07-24T00:12:19.746Z,100.00
2023-07-24T00:14:52.230Z,100.00
2023-07-24T00:17:24.542Z,100.00
2023-07-24T00:19:54.155Z,100.00
2023-07-24T00:22:23.536Z,100.00
2023-07-24T00:24:53.187Z,100.00
2023-07-24T00:27:22.614Z,100.00
2023-07-24T00:29:51.973Z,100.00
2023-07-24T00:32:23.976Z,100.00
2023-07-24T00:34:53.401Z,100.00
2023-07-24T00:37:22.772Z,100.00
2023-07-24T00:39:52.157Z,100.00
2023-07-24T00:42:21.522Z,100.00
2023-07-24T00:44:50.866Z,100.00
2023-07-24T00:47:20.728Z,100.00
2023-07-24T00:49:53.201Z,100.00
2023-07-24T00:52:22.711Z,100.00
2023-07-24T00:54:53.452Z,100.00
2023-07-24T00:57:23.023Z,100.00
2023-07-24T00:59:52.532Z,100.00
2023-07-24T01:02:21.997Z,100.00
2023-07-24T01:04:54.084Z,100.00
2023-07-24T01:07:24.334Z,100.00
2023-07-24T01:09:54.601Z,100.00
2023-07-24T01:12:31.743Z,100.00
2023-07-24T01:15:08.653Z,100.00
2023-07-24T01:17:43.206Z,100.00
2023-07-24T01:20:16.505Z,100.00
2023-07-24T01:23:01.338Z,100.00
2023-07-24T01:25:37.003Z,100.00
2023-07-24T01:28:12.987Z,100.00
2023-07-24T01:30:43.128Z,100.00
2023-07-24T01:33:12.512Z,100.00
2023-07-24T01:35:42.183Z,100.00
2023-07-24T01:38:11.950Z,100.00
2023-07-24T01:40:42.783Z,100.00
2023-07-24T01:43:15.010Z,100.00
2023-07-24T01:45:44.400Z,100.00
2023-07-24T01:48:13.888Z,100.00
2023-07-24T01:50:43.334Z,100.00
2023-07-24T01:53:13.351Z,100.00
2023-07-24T01:55:42.689Z,100.00
2023-07-24T01:58:14.661Z,100.00
2023-07-24T02:00:44.015Z,100.00
2023-07-24T02:03:13.462Z,100.00
2023-07-24T02:05:42.913Z,100.00
2023-07-24T02:08:12.280Z,100.00
2023-07-24T02:10:42.020Z,100.00
2023-07-24T02:13:13.960Z,100.00
2023-07-24T02:15:43.308Z,100.00
2023-07-24T02:18:12.660Z,100.00
2023-07-24T02:20:42.051Z,100.00
2023-07-24T02:23:13.490Z,100.00
2023-07-24T02:25:44.251Z,100.00
2023-07-24T02:28:16.163Z,100.00
2023-07-24T02:30:45.548Z,100.00
2023-07-24T02:33:14.879Z,100.00
2023-07-24T02:35:44.635Z,100.00
2023-07-24T02:38:14.025Z,100.00
2023-07-24T02:40:44.655Z,100.00
2023-07-24T02:43:16.640Z,100.00
2023-07-24T02:45:46.064Z,100.00
2023-07-24T02:48:15.496Z,100.00
2023-07-24T02:50:45.073Z,100.00
2023-07-24T02:53:14.409Z,100.00
2023-07-24T02:55:45.971Z,100.00
2023-07-24T02:58:18.332Z,100.00
2023-07-24T03:00:47.830Z,100.00
2023-07-24T03:03:17.316Z,100.00
2023-07-24T03:05:46.732Z,100.00
2023-07-24T03:08:16.154Z,100.00
2023-07-24T03:10:45.565Z,100.00
2023-07-24T03:13:14.928Z,100.00
2023-07-24T03:15:46.922Z,100.00
2023-07-24T03:18:16.292Z,100.00
2023-07-24T03:20:45.697Z,100.00
2023-07-24T03:23:15.114Z,100.00
2023-07-24T03:25:44.732Z,100.00
2023-07-24T03:28:14.090Z,100.00
2023-07-24T03:30:43.653Z,100.00
2023-07-24T03:33:15.930Z,100.00
2023-07-24T03:35:45.363Z,100.00
2023-07-24T03:38:14.717Z,100.00
2023-07-24T03:40:46.482Z,100.00
2023-07-24T03:43:16.046Z,100.00
2023-07-24T03:45:46.593Z,100.00
2023-07-24T03:48:18.547Z,100.00
2023-07-24T03:50:47.981Z,100.00
2023-07-24T03:53:17.345Z,100.00
2023-07-24T03:55:46.856Z,100.00
2023-07-24T03:58:16.259Z,100.00
2023-07-24T04:00:45.646Z,100.00
2023-07-24T04:03:15.156Z,100.00
2023-07-24T04:05:47.363Z,100.00
2023-07-24T04:08:16.720Z,100.00
2023-07-24T04:10:48.595Z,100.00
2023-07-24T04:13:18.030Z,100.00
2023-07-24T04:15:47.889Z,100.00
2023-07-24T04:18:17.261Z,100.00
2023-07-24T04:20:49.355Z,100.00
2023-07-24T04:23:18.716Z,100.00
2023-07-24T04:25:48.058Z,100.00
2023-07-24T04:28:17.440Z,100.00
2023-07-24T04:30:46.964Z,100.00
2023-07-24T04:33:16.373Z,100.00
2023-07-24T04:35:45.786Z,100.00
2023-07-24T04:38:17.688Z,100.00
2023-07-24T04:40:47.846Z,100.00
2023-07-24T04:43:17.212Z,100.00
2023-07-24T04:45:46.578Z,100.00
2023-07-24T04:48:16.029Z,100.00
2023-07-24T04:50:45.388Z,100.00
2023-07-24T04:53:17.525Z,100.00
2023-07-24T04:55:49.120Z,100.00
2023-07-24T04:58:18.558Z,100.00
2023-07-24T05:00:47.913Z,100.00
2023-07-24T05:03:18.531Z,100.00
2023-07-24T05:05:52.216Z,100.00
2023-07-24T05:08:24.244Z,100.00
2023-07-24T05:10:57.908Z,100.00
2023-07-24T05:13:27.330Z,100.00
2023-07-24T05:15:56.819Z,100.00
2023-07-24T05:18:26.327Z,100.00
2023-07-24T05:20:55.733Z,100.00
2023-07-24T05:23:27.682Z,100.00
2023-07-24T05:26:00.814Z,100.00
2023-07-24T05:28:30.283Z,100.00
2023-07-24T05:30:59.859Z,100.00
2023-07-24T05:33:29.284Z,100.00
2023-07-24T05:36:01.858Z,100.00
2023-07-24T05:38:34.288Z,100.00
2023-07-24T05:41:05.660Z,100.00
2023-07-24T05:43:35.562Z,100.00
2023-07-24T05:46:04.951Z,100.00
2023-07-24T05:48:34.395Z,100.00
2023-07-24T05:51:04.390Z,100.00
2023-07-24T05:53:36.331Z,100.00
2023-07-24T05:56:06.888Z,100.00
2023-07-24T05:58:36.251Z,100.00
2023-07-24T06:01:05.894Z,100.00
2023-07-24T06:03:35.624Z,100.00
2023-07-24T06:06:05.006Z,100.00
2023-07-24T06:08:36.987Z,100.00
2023-07-24T06:11:06.367Z,100.00
2023-07-24T06:13:35.759Z,100.00
2023-07-24T06:16:05.348Z,100.00
2023-07-24T06:18:34.754Z,100.00
2023-07-24T06:21:04.609Z,100.00
2023-07-24T06:23:34.151Z,100.00
2023-07-24T06:26:06.110Z,100.00
2023-07-24T06:28:35.554Z,100.00
2023-07-24T06:31:04.937Z,100.00
2023-07-24T06:33:34.355Z,100.00
2023-07-24T06:36:04.713Z,100.00
2023-07-24T06:38:34.063Z,100.00
2023-07-24T06:41:06.961Z,100.00
2023-07-24T06:43:36.345Z,100.00
2023-07-24T06:46:05.697Z,100.00
2023-07-24T06:48:35.081Z,100.00
2023-07-24T06:51:04.481Z,100.00
2023-07-24T06:53:33.851Z,100.00
2023-07-24T06:56:05.962Z,100.00
2023-07-24T06:58:35.312Z,100.00
2023-07-24T07:01:09.628Z,100.00
2023-07-24T07:03:39.052Z,100.00
2023-07-24T07:08:57.184Z,100.00
2023-07-24T07:11:29.164Z,100.00
2023-07-24T07:13:58.527Z,100.00
2023-07-24T07:16:28.410Z,100.00
2023-07-24T07:18:58.081Z,100.00
2023-07-24T07:21:27.439Z,100.00
2023-07-24T07:23:56.811Z,100.00
2023-07-24T07:26:30.786Z,100.00
2023-07-24T07:29:00.816Z,100.00
2023-07-24T07:31:30.286Z,100.00
2023-07-24T07:33:59.845Z,100.00
2023-07-24T07:36:29.460Z,100.00
2023-07-24T07:38:58.961Z,100.00
2023-07-24T07:41:31.001Z,100.00
2023-07-24T07:44:01.485Z,100.00
2023-07-24T07:46:31.450Z,100.00
2023-07-24T07:49:01.048Z,100.00
2023-07-24T07:51:30.428Z,100.00
2023-07-24T07:53:59.772Z,100.00
2023-07-24T07:56:32.307Z,100.00
2023-07-24T07:59:01.903Z,100.00
2023-07-24T08:01:31.852Z,100.00
2023-07-24T08:04:01.215Z,100.00
2023-07-24T08:06:30.957Z,100.00
2023-07-24T08:09:00.628Z,100.00
2023-07-24T08:11:32.586Z,100.00
2023-07-24T08:14:03.941Z,100.00
2023-07-24T08:16:33.714Z,100.00
2023-07-24T08:19:03.477Z,100.00
2023-07-24T08:21:32.858Z,100.00
2023-07-24T08:24:03.124Z,100.00
2023-07-24T08:26:35.199Z,100.00
2023-07-24T08:29:04.604Z,100.00
2023-07-24T08:31:34.265Z,100.00
2023-07-24T08:34:04.979Z,100.00
2023-07-24T08:36:34.352Z,100.00
2023-07-24T08:39:04.502Z,100.00
2023-07-24T08:41:38.586Z,100.00
2023-07-24T08:44:10.620Z,100.00
2023-07-24T08:46:42.641Z,100.00
2023-07-24T08:49:15.545Z,100.00
2023-07-24T08:51:47.473Z,100.00
2023-07-24T08:54:17.961Z,100.00
2023-07-24T08:56:51.485Z,100.00
2023-07-24T08:59:20.978Z,100.00
2023-07-24T09:01:50.494Z,100.00
2023-07-24T09:04:19.870Z,100.00
2023-07-24T09:06:49.300Z,100.00
2023-07-24T09:09:19.497Z,100.00
2023-07-24T09:11:56.842Z,100.00
2023-07-24T09:14:28.655Z,100.00
2023-07-24T09:17:07.415Z,100.00
2023-07-24T09:19:37.169Z,100.00
2023-07-24T09:22:15.115Z,100.00
2023-07-24T09:24:54.080Z,100.00
2023-07-24T09:27:29.815Z,100.00
2023-07-24T09:30:01.137Z,100.00
2023-07-24T09:32:32.924Z,100.00
2023-07-24T09:35:03.344Z,100.00
2023-07-24T09:37:36.535Z,100.00
2023-07-24T09:40:07.730Z,100.00
2023-07-24T09:42:56.425Z,100.00
2023-07-24T09:45:30.435Z,100.00
2023-07-24T09:48:06.441Z,100.00
2023-07-24T09:50:37.600Z,100.00
2023-07-24T09:53:09.683Z,100.00
2023-07-24T09:55:46.794Z,100.00
2023-07-24T09:58:19.828Z,100.00
2023-07-24T10:00:49.610Z,100.00
2023-07-24T10:03:21.449Z,100.00
2023-07-24T10:05:51.940Z,100.00
2023-07-24T10:08:22.781Z,100.00
2023-07-24T10:10:54.521Z,100.00
2023-07-24T10:13:27.046Z,100.00
2023-07-24T10:15:56.677Z,100.00
2023-07-24T10:18:31.192Z,100.00
2023-07-24T10:21:04.977Z,100.00
2023-07-24T10:23:34.760Z,100.00
2023-07-24T10:26:07.042Z,100.00
2023-07-24T10:28:42.748Z,100.00
2023-07-24T10:31:23.807Z,100.00
2023-07-24T10:33:53.452Z,100.00
2023-07-24T10:36:25.516Z,100.00
2023-07-24T10:38:57.874Z,100.00
2023-07-24T10:41:38.777Z,100.00
2023-07-24T10:44:11.194Z,100.00
2023-07-24T10:46:42.228Z,100.00
2023-07-24T10:49:12.533Z,100.00
2023-07-24T10:51:41.929Z,100.00
2023-07-24T10:54:11.497Z,100.00
2023-07-24T10:56:41.191Z,100.00
2023-07-24T10:59:13.096Z,100.00
2023-07-24T11:01:43.086Z,100.00
2023-07-24T11:04:13.778Z,100.00
2023-07-24T11:06:43.870Z,100.00
2023-07-24T11:09:13.228Z,100.00
2023-07-24T11:11:42.551Z,100.00
2023-07-24T11:14:17.541Z,100.00
2023-07-24T11:16:52.338Z,100.00
2023-07-24T11:19:26.538Z,100.00
2023-07-24T11:21:55.942Z,100.00
2023-07-24T11:24:25.377Z,100.00
2023-07-24T11:26:56.396Z,100.00
2023-07-24T11:29:28.302Z,100.00
2023-07-24T11:31:58.090Z,100.00
2023-07-24T11:34:29.960Z,100.00
2023-07-24T11:36:59.556Z,100.00
2023-07-24T11:39:28.921Z,100.00
2023-07-24T11:41:58.294Z,100.00
2023-07-24T11:44:33.369Z,100.00
2023-07-24T11:47:06.862Z,100.00
2023-07-24T11:49:36.629Z,100.00
2023-07-24T11:52:08.407Z,100.00
2023-07-24T11:54:38.431Z,100.00
2023-07-24T11:57:18.429Z,100.00
2023-07-24T11:59:50.803Z,100.00
2023-07-24T12:02:20.204Z,100.00
2023-07-24T12:04:49.643Z,100.00
2023-07-24T12:07:19.143Z,100.00
2023-07-24T12:09:54.526Z,100.00
2023-07-24T12:12:24.039Z,100.00
2023-07-24T12:14:55.982Z,100.00
2023-07-24T12:17:25.369Z,100.00
2023-07-24T12:19:54.758Z,100.00
2023-07-24T12:22:24.130Z,100.00
2023-07-24T12:24:53.578Z,100.00
2023-07-24T12:27:22.992Z,100.00
2023-07-24T12:29:52.409Z,100.00
2023-07-24T12:32:24.826Z,100.00
2023-07-24T12:34:55.403Z,100.00
2023-07-24T12:37:24.798Z,100.00
2023-07-24T12:39:54.374Z,100.00
2023-07-24T12:42:24.656Z,100.00
2023-07-24T12:44:54.649Z,100.00
2023-07-24T12:47:27.639Z,98.33
2023-07-24T12:49:57.528Z,96.29
2023-07-24T12:52:27.018Z,98.93
2023-07-24T12:55:02.347Z,97.55
2023-07-24T12:57:32.500Z,95.27
2023-07-24T13:00:01.913Z,96.05
2023-07-24T13:02:33.923Z,93.93
2023-07-24T13:05:03.534Z,92.23
2023-07-24T13:07:32.979Z,91.42
2023-07-24T13:10:02.652Z,93.56
2023-07-24T13:12:32.048Z,92.62
2023-07-24T13:15:01.419Z,91.94
2023-07-24T13:17:31.151Z,93.52
2023-07-24T13:20:03.225Z,92.01
2023-07-24T13:22:32.614Z,89.38
2023-07-24T13:25:01.964Z,89.36
2023-07-24T13:27:31.353Z,90.48
2023-07-24T13:30:00.734Z,91.16
2023-07-24T13:32:31.186Z,90.69
2023-07-24T13:35:03.375Z,92.13
2023-07-24T13:37:32.731Z,91.22
2023-07-24T13:40:02.100Z,89.31
2023-07-24T13:42:31.633Z,90.67
2023-07-24T13:45:00.984Z,87.82
2023-07-24T13:47:30.391Z,88.31
2023-07-24T13:50:01.184Z,84.91
2023-07-24T13:52:33.199Z,85.36
2023-07-24T13:55:02.904Z,82.88
2023-07-24T13:57:32.348Z,81.98
2023-07-24T14:00:01.816Z,81.28
2023-07-24T14:02:31.291Z,82.65
2023-07-24T14:05:00.705Z,83.73
2023-07-24T14:07:30.104Z,83.72
2023-07-24T14:10:02.046Z,82.31
2023-07-24T14:12:31.394Z,80.56
2023-07-24T14:15:00.786Z,81.76
2023-07-24T14:17:31.288Z,81.43
2023-07-24T14:20:00.711Z,82.40
2023-07-24T14:22:30.054Z,80.03
2023-07-24T14:25:02.097Z,79.84
2023-07-24T14:27:31.626Z,79.88
2023-07-24T14:30:01.048Z,81.26
2023-07-24T14:32:30.604Z,80.52
2023-07-24T14:34:59.964Z,80.60
2023-07-24T14:37:29.349Z,81.18
2023-07-24T14:39:58.748Z,81.56
2023-07-24T14:42:30.716Z,81.72
2023-07-24T14:45:03.485Z,81.78
2023-07-24T14:47:33.278Z,84.12
2023-07-24T14:50:02.863Z,83.60
2023-07-24T14:52:32.289Z,84.01
2023-07-24T14:55:01.701Z,84.43
2023-07-24T14:57:33.768Z,86.20
2023-07-24T15:00:03.395Z,85.39
2023-07-24T15:02:33.956Z,84.42
2023-07-24T15:05:03.373Z,83.87
2023-07-24T15:07:32.704Z,82.22
2023-07-24T15:10:03.369Z,81.76
2023-07-24T15:12:35.295Z,81.32
2023-07-24T15:15:04.689Z,83.25
2023-07-24T15:17:34.056Z,82.87
2023-07-24T15:20:03.980Z,82.56
2023-07-24T15:22:33.379Z,82.94
2023-07-24T15:25:03.971Z,84.45
2023-07-24T15:27:35.957Z,82.48
2023-07-24T15:30:05.389Z,82.95
2023-07-24T15:32:34.900Z,82.13
2023-07-24T15:35:04.410Z,80.79
2023-07-24T15:37:33.823Z,80.65
2023-07-24T15:40:03.234Z,80.23
2023-07-24T15:42:32.738Z,79.40
2023-07-24T15:45:05.156Z,79.63
2023-07-24T15:47:34.550Z,79.12
2023-07-24T15:50:05.895Z,77.97
2023-07-24T15:52:35.388Z,78.08
2023-07-24T15:55:04.743Z,78.41
2023-07-24T15:57:34.198Z,78.20
2023-07-24T16:00:09.776Z,78.46
2023-07-24T16:02:39.309Z,78.39
2023-07-24T16:05:09.973Z,78.36
2023-07-24T16:07:39.391Z,77.12
2023-07-24T16:10:09.757Z,77.38
2023-07-24T16:12:39.084Z,77.46
2023-07-24T16:15:12.895Z,77.65
2023-07-24T16:18:05.649Z,77.40
2023-07-24T16:20:32.435Z,77.14
2023-07-24T16:23:04.756Z,77.55
2023-07-24T16:25:36.081Z,76.96
2023-07-24T16:28:05.488Z,75.44
2023-07-24T16:30:37.572Z,76.52
2023-07-24T16:33:07.041Z,76.27
2023-07-24T16:35:36.511Z,76.13
2023-07-24T16:38:07.311Z,75.67
2023-07-24T16:40:38.185Z,76.03
2023-07-24T16:43:07.762Z,75.41
2023-07-24T16:45:39.737Z,75.67
2023-07-24T16:48:09.766Z,74.60
2023-07-24T16:50:39.291Z,74.81
2023-07-24T16:53:08.643Z,75.38
2023-07-24T16:55:38.138Z,75.88
2023-07-24T16:58:07.500Z,76.31
2023-07-24T17:00:39.709Z,76.08
2023-07-24T17:03:09.310Z,75.48
2023-07-24T17:05:39.304Z,75.74
2023-07-24T17:08:08.739Z,75.43
2023-07-24T17:10:45.527Z,75.27
2023-07-24T17:13:15.073Z,74.94
2023-07-24T17:15:47.671Z,75.47
2023-07-24T17:18:17.096Z,74.74
2023-07-24T17:20:46.522Z,74.16
2023-07-24T17:23:16.052Z,74.36
2023-07-24T17:25:47.563Z,74.07
2023-07-24T17:28:17.074Z,74.25
2023-07-24T17:30:49.250Z,74.45
2023-07-24T17:33:18.706Z,74.93
2023-07-24T17:35:48.313Z,74.57
2023-07-24T17:38:17.812Z,74.96
2023-07-24T17:40:47.239Z,75.07
2023-07-24T17:43:16.669Z,75.27
2023-07-24T17:45:49.039Z,75.81
2023-07-24T17:48:18.724Z,75.52
2023-07-24T17:50:48.864Z,75.51
2023-07-24T17:55:49.052Z,77.15
2023-07-24T17:58:20.617Z,79.70
2023-07-24T18:00:52.584Z,79.73
2023-07-24T18:03:22.030Z,79.44
2023-07-24T18:05:51.637Z,79.05
2023-07-24T18:08:21.055Z,78.91
2023-07-24T18:10:50.471Z,80.39
2023-07-24T18:13:19.872Z,78.39
2023-07-24T18:15:51.864Z,79.31
2023-07-24T18:18:21.428Z,79.47
2023-07-24T18:20:50.825Z,79.11
2023-07-24T18:23:20.446Z,79.95
2023-07-24T18:25:49.851Z,79.78
2023-07-24T18:28:19.203Z,79.93
2023-07-24T18:30:48.727Z,79.81
2023-07-24T18:33:20.767Z,80.72
2023-07-24T18:35:52.488Z,80.47
2023-07-24T18:38:23.715Z,79.66
2023-07-24T18:40:53.212Z,79.97
2023-07-24T18:43:22.725Z,80.93
2023-07-24T18:45:52.109Z,81.39
2023-07-24T18:48:24.308Z,82.16
2023-07-24T18:50:53.641Z,82.48
2023-07-24T18:53:23.239Z,84.04
2023-07-24T18:55:53.388Z,83.26
2023-07-24T18:58:22.851Z,82.65
2023-07-24T19:00:52.690Z,81.78
2023-07-24T19:03:24.676Z,82.27
2023-07-24T19:05:54.124Z,82.58
2023-07-24T19:08:23.976Z,82.04
2023-07-24T19:10:53.337Z,83.80
2023-07-24T19:13:23.594Z,82.31
2023-07-24T19:15:53.010Z,81.89
2023-07-24T19:18:25.163Z,81.76
2023-07-24T19:20:54.537Z,82.09
2023-07-24T19:23:24.029Z,81.82
2023-07-24T19:25:54.213Z,83.12
2023-07-24T19:28:23.630Z,82.29
2023-07-24T19:30:54.677Z,82.80
2023-07-24T19:33:27.301Z,82.63
2023-07-24T19:36:01.280Z,82.88
2023-07-24T19:38:30.855Z,83.11
2023-07-24T19:41:00.786Z,82.07
2023-07-24T19:43:30.574Z,82.65
2023-07-24T19:46:00.740Z,82.10
2023-07-24T19:48:32.941Z,81.94
2023-07-24T19:51:02.950Z,81.98
2023-07-24T19:53:32.430Z,82.23
2023-07-24T19:56:07.262Z,82.50
2023-07-24T19:58:37.119Z,82.42
2023-07-24T20:01:07.513Z,81.80
2023-07-24T20:03:40.188Z,82.60
2023-07-24T20:06:12.135Z,82.67
2023-07-24T20:08:41.795Z,82.41
2023-07-24T20:11:11.184Z,82.86
2023-07-24T20:13:40.775Z,82.38
2023-07-24T20:16:10.239Z,83.33
2023-07-24T20:18:42.385Z,82.53
2023-07-24T20:21:11.937Z,82.59
2023-07-24T20:23:43.147Z,83.98
2023-07-24T20:26:12.739Z,83.07
2023-07-24T20:28:42.116Z,83.78
2023-07-24T20:31:11.776Z,84.26
2023-07-24T20:33:43.726Z,85.27
2023-07-24T20:36:14.212Z,85.00
2023-07-24T20:38:43.611Z,84.89
2023-07-24T20:41:13.476Z,84.90
2023-07-24T20:43:43.194Z,84.88
2023-07-24T20:46:14.289Z,86.05
2023-07-24T20:48:47.007Z,86.51
2023-07-24T20:51:21.535Z,86.36
2023-07-24T20:53:51.760Z,86.07
2023-07-24T20:56:23.976Z,85.96
2023-07-24T20:58:53.684Z,85.72
2023-07-24T21:01:24.387Z,86.70
2023-07-24T21:03:57.375Z,86.65
2023-07-24T21:06:26.885Z,87.04
2023-07-24T21:08:56.329Z,86.79
2023-07-24T21:11:26.021Z,87.78
2023-07-24T21:13:55.364Z,86.83
2023-07-24T21:16:25.096Z,87.16
2023-07-24T21:18:57.152Z,88.38
2023-07-24T21:21:26.682Z,87.83
2023-07-24T21:23:56.128Z,88.32
2023-07-24T21:26:23.372Z,88.86
2023-07-24T21:28:52.780Z,88.09
2023-07-24T21:31:22.160Z,89.03
2023-07-24T21:33:51.595Z,89.23
2023-07-24T21:36:23.557Z,89.58
2023-07-24T21:38:52.931Z,90.52
2023-07-24T21:41:22.373Z,89.78
2023-07-24T21:43:51.731Z,92.49
2023-07-24T21:46:21.154Z,91.48
2023-07-24T21:48:50.534Z,91.21
2023-07-24T21:51:19.909Z,91.67
2023-07-24T21:53:51.894Z,91.69
2023-07-24T21:56:21.356Z,92.52
2023-07-24T21:58:51.127Z,91.84
2023-07-24T22:01:21.460Z,91.14
2023-07-24T22:03:50.950Z,90.51
2023-07-24T22:06:20.404Z,90.33
2023-07-24T22:08:52.572Z,89.15
2023-07-24T22:11:22.755Z,89.22
2023-07-24T22:13:52.159Z,89.37
2023-07-24T22:16:21.567Z,89.15
2023-07-24T22:18:50.954Z,88.70
2023-07-24T22:21:20.312Z,88.75
2023-07-24T22:23:52.415Z,89.35
2023-07-24T22:26:22.269Z,88.44
2023-07-24T22:28:51.642Z,88.29
2023-07-24T22:31:21.253Z,89.29
2023-07-24T22:33:50.652Z,89.40
2023-07-24T22:36:20.062Z,89.05
2023-07-24T22:38:52.041Z,87.74
2023-07-24T22:41:24.728Z,88.27
2023-07-24T22:43:54.101Z,88.81
2023-07-24T22:46:23.501Z,87.63
2023-07-24T22:48:52.912Z,88.28
2023-07-24T22:51:22.393Z,88.10
2023-07-24T22:53:54.422Z,88.62
2023-07-24T22:56:23.804Z,87.87
2023-07-24T22:59:23.221Z,87.21
2023-07-24T23:01:53.974Z,87.49
2023-07-24T23:04:25.561Z,88.34
2023-07-24T23:06:55.820Z,90.43
2023-07-24T23:09:27.825Z,89.22
2023-07-24T23:11:57.287Z,88.56
2023-07-24T23:14:26.844Z,88.52
2023-07-24T23:16:56.546Z,88.32
2023-07-24T23:19:25.904Z,88.83
2023-07-24T23:21:55.273Z,89.53
2023-07-24T23:24:27.397Z,89.25
2023-07-24T23:26:58.012Z,88.84
2023-07-24T23:29:27.385Z,88.94
2023-07-24T23:31:57.245Z,89.04
2023-07-24T23:34:26.610Z,88.14
2023-07-24T23:36:56.149Z,87.97
2023-07-24T23:39:28.059Z,88.17
2023-07-24T23:41:57.542Z,89.46
2023-07-24T23:44:26.888Z,88.84
2023-07-24T23:46:56.215Z,89.47
2023-07-24T23:49:25.610Z,89.69
2023-07-24T23:51:54.966Z,90.16
2023-07-24T23:54:24.318Z,90.26
2023-07-24T23:56:56.278Z,89.47
2023-07-24T23:59:25.628Z,89.98
